Terminal Aerodrome Forecast
Issued by NWS Wilmington, OH

Current Version | Previous Version | Text Only | Print | Product List | Glossary Off
Versions: 1 2 3 4 5 6 7 8 9 10 11 12 13 14 15 16 17 18 19 20 21 22 23 24 25

000
FTUS41 KILN 231700
TAFDAY
TAF
KDAY 231722Z 2318/2418 VRB03KT P6SM BKN018 OVC030
     FM232100 VRB03KT P6SM SCT018 BKN100
     FM240400 30006KT P6SM BKN018
     FM241300 25008KT P6SM BKN100
     FM241500 24012G18KT P6SM BKN100=

USA.gov is the U.S. government's official web portal to all federal, state and local government web resources and services.